createdAt,value
2019-03-29T00:02:12.493Z,5.37
2019-03-29T00:04:41.640Z,5.17
2019-03-29T00:07:10.720Z,5.87
2019-03-29T00:09:39.713Z,5.47
2019-03-29T00:12:08.676Z,5.23
2019-03-29T00:14:37.785Z,5.83
2019-03-29T00:17:06.825Z,5.53
2019-03-29T00:19:35.824Z,5.87
2019-03-29T00:22:05.120Z,5.70
2019-03-29T00:24:34.357Z,5.97
2019-03-29T00:27:03.402Z,6.23
2019-03-29T00:29:32.408Z,6.13
2019-03-29T00:32:01.404Z,6.60
2019-03-29T00:34:30.402Z,6.00
2019-03-29T00:36:59.532Z,6.23
2019-03-29T00:39:28.588Z,6.50
2019-03-29T00:41:57.644Z,5.90
2019-03-29T00:44:26.975Z,6.60
2019-03-29T00:46:56.248Z,5.73
2019-03-29T00:49:25.309Z,5.90
2019-03-29T00:51:54.300Z,6.20
2019-03-29T00:54:23.406Z,5.97
2019-03-29T00:56:52.405Z,6.50
2019-03-29T00:59:21.487Z,6.53
2019-03-29T01:01:50.568Z,5.80
2019-03-29T01:04:19.496Z,6.17
2019-03-29T01:06:48.471Z,6.13
2019-03-29T01:09:17.493Z,6.30
2019-03-29T01:11:48.507Z,6.43
2019-03-29T01:14:17.524Z,6.57
2019-03-29T01:16:46.520Z,7.50
2019-03-29T01:19:15.522Z,7.23
2019-03-29T01:21:44.498Z,7.83
2019-03-29T01:24:13.604Z,7.97
2019-03-29T01:26:42.709Z,8.20
2019-03-29T01:29:11.720Z,8.40
2019-03-29T01:31:40.949Z,8.17
2019-03-29T01:34:10.294Z,8.60
2019-03-29T01:36:39.387Z,8.70
2019-03-29T01:39:08.470Z,8.40
2019-03-29T01:41:37.509Z,8.73
2019-03-29T01:44:06.490Z,7.70
2019-03-29T01:46:35.512Z,8.80
2019-03-29T01:49:04.495Z,9.33
2019-03-29T01:51:33.522Z,9.27
2019-03-29T01:54:04.090Z,9.33
2019-03-29T01:56:33.357Z,9.90
2019-03-29T01:59:02.343Z,10.63
2019-03-29T02:01:31.354Z,10.10
2019-03-29T02:04:00.332Z,10.77
2019-03-29T02:06:29.345Z,9.50
2019-03-29T02:09:03.202Z,9.53
2019-03-29T02:11:32.204Z,11.00
2019-03-29T02:14:01.254Z,9.90
2019-03-29T02:16:30.274Z,10.73
2019-03-29T02:18:59.326Z,10.47
2019-03-29T02:21:29.969Z,10.67
2019-03-29T02:23:58.980Z,11.03
2019-03-29T02:26:27.978Z,12.37
2019-03-29T02:28:57.004Z,12.03
2019-03-29T02:31:27.793Z,11.80
2019-03-29T02:33:56.804Z,11.57
2019-03-29T02:36:25.885Z,11.93
2019-03-29T02:38:56.334Z,12.43
2019-03-29T02:41:25.689Z,13.23
2019-03-29T02:43:54.683Z,13.90
2019-03-29T02:46:25.632Z,13.40
2019-03-29T02:48:54.444Z,14.30
2019-03-29T02:51:23.491Z,13.70
2019-03-29T02:53:52.477Z,13.53
2019-03-29T02:56:21.491Z,14.33
2019-03-29T02:58:50.478Z,14.37
2019-03-29T03:01:19.534Z,14.47
2019-03-29T03:03:48.547Z,14.50
2019-03-29T03:06:17.546Z,14.30
2019-03-29T03:08:46.568Z,14.80
2019-03-29T03:11:15.680Z,15.27
2019-03-29T03:13:44.778Z,15.23
2019-03-29T03:16:13.868Z,16.50
2019-03-29T03:18:42.937Z,14.53
2019-03-29T03:21:11.981Z,16.00
2019-03-29T03:23:41.045Z,17.47
2019-03-29T03:26:10.044Z,16.47
2019-03-29T03:28:39.003Z,16.43
2019-03-29T03:31:08.029Z,18.50
2019-03-29T03:33:37.094Z,17.57
2019-03-29T03:36:06.228Z,17.43
2019-03-29T03:38:35.418Z,16.03
2019-03-29T03:41:04.383Z,15.57
2019-03-29T03:43:33.398Z,17.43
2019-03-29T03:46:02.439Z,16.80
2019-03-29T03:48:31.531Z,15.63
2019-03-29T03:51:00.567Z,16.87
2019-03-29T03:53:29.935Z,16.97
2019-03-29T03:55:59.678Z,18.93
2019-03-29T03:58:29.494Z,16.90
2019-03-29T04:00:58.931Z,19.10
2019-03-29T04:03:28.005Z,18.33
2019-03-29T04:05:57.041Z,17.10
2019-03-29T04:08:26.326Z,17.70
2019-03-29T04:10:55.391Z,18.23
2019-03-29T04:13:24.488Z,18.37
2019-03-29T04:15:53.549Z,18.73
2019-03-29T04:18:22.609Z,17.63
2019-03-29T04:20:51.695Z,18.00
2019-03-29T04:23:20.685Z,18.27
2019-03-29T04:25:49.775Z,19.40
2019-03-29T04:28:18.874Z,19.97
2019-03-29T04:30:47.880Z,19.73
2019-03-29T04:33:16.876Z,18.67
2019-03-29T04:35:45.893Z,18.33
2019-03-29T04:38:15.004Z,19.50
2019-03-29T04:40:44.133Z,19.40
2019-03-29T04:43:13.192Z,20.73
2019-03-29T04:45:42.232Z,19.43
2019-03-29T04:48:11.258Z,19.53
2019-03-29T04:50:40.311Z,20.03
2019-03-29T04:53:09.304Z,20.10
2019-03-29T04:55:38.373Z,19.70
2019-03-29T04:58:07.428Z,21.20
2019-03-29T05:00:36.474Z,20.33
2019-03-29T05:03:05.487Z,21.33
2019-03-29T05:05:34.597Z,20.70
2019-03-29T05:08:03.606Z,20.33
2019-03-29T05:10:32.642Z,20.53
2019-03-29T05:13:01.701Z,20.13
2019-03-29T05:15:30.718Z,20.10
2019-03-29T05:17:59.781Z,19.77
2019-03-29T05:20:28.871Z,19.30
2019-03-29T05:22:57.851Z,19.60
2019-03-29T05:25:26.864Z,18.83
2019-03-29T05:27:55.838Z,19.63
2019-03-29T05:30:24.874Z,19.27
2019-03-29T05:32:53.839Z,19.03
2019-03-29T05:35:23.013Z,19.17
2019-03-29T05:37:52.046Z,18.70
2019-03-29T05:40:33.999Z,18.47
2019-03-29T05:42:51.876Z,18.13
2019-03-29T05:45:20.936Z,17.67
2019-03-29T05:47:49.956Z,16.30
2019-03-29T05:50:19.038Z,17.50
2019-03-29T05:52:48.139Z,17.07
2019-03-29T05:55:17.137Z,16.97
2019-03-29T05:57:46.229Z,17.07
2019-03-29T06:00:17.859Z,16.60
2019-03-29T06:02:46.935Z,17.27
2019-03-29T06:05:15.933Z,17.10
2019-03-29T06:07:45.078Z,15.97
2019-03-29T06:10:14.122Z,16.67
2019-03-29T06:12:43.192Z,15.17
2019-03-29T06:15:12.345Z,15.90
2019-03-29T06:17:48.385Z,16.13
2019-03-29T06:20:12.413Z,14.97
2019-03-29T06:22:41.445Z,13.73
2019-03-29T06:25:10.439Z,13.63
2019-03-29T06:27:39.548Z,12.67
2019-03-29T06:30:08.719Z,11.87
2019-03-29T06:32:37.804Z,12.30
2019-03-29T06:35:07.050Z,12.13
2019-03-29T06:37:36.750Z,11.80
2019-03-29T06:40:06.644Z,12.17
2019-03-29T06:42:35.732Z,11.60
2019-03-29T06:45:05.741Z,12.17
2019-03-29T06:47:34.847Z,11.37
2019-03-29T06:50:04.103Z,10.90
2019-03-29T06:52:33.170Z,10.80
2019-03-29T06:55:02.289Z,11.93
2019-03-29T06:57:31.430Z,12.50
2019-03-29T07:00:00.516Z,11.73
2019-03-29T07:02:29.646Z,11.83
2019-03-29T07:04:58.730Z,11.13
2019-03-29T07:07:27.887Z,11.77
2019-03-29T07:09:57.008Z,11.53
2019-03-29T07:12:26.084Z,11.00
2019-03-29T07:14:55.147Z,10.93
2019-03-29T07:17:24.158Z,11.57
2019-03-29T07:19:53.259Z,11.23
2019-03-29T07:22:22.276Z,11.83
2019-03-29T07:24:51.389Z,11.80
2019-03-29T07:27:20.460Z,12.40
2019-03-29T07:29:49.465Z,11.90
2019-03-29T07:32:18.515Z,12.90
2019-03-29T07:34:49.158Z,11.70
2019-03-29T07:37:18.315Z,11.47
2019-03-29T07:39:47.388Z,12.67
2019-03-29T07:42:16.487Z,11.73
2019-03-29T07:44:45.562Z,11.27
2019-03-29T07:47:14.660Z,11.63
2019-03-29T07:49:43.780Z,12.33
2019-03-29T07:52:12.830Z,12.83
2019-03-29T07:54:44.724Z,11.97
2019-03-29T07:57:13.731Z,12.87
2019-03-29T07:59:42.804Z,11.97
2019-03-29T08:02:11.863Z,12.43
2019-03-29T08:04:40.902Z,11.67
2019-03-29T08:07:09.910Z,12.87
2019-03-29T08:09:38.989Z,12.47
2019-03-29T08:12:08.098Z,11.77
2019-03-29T08:14:37.081Z,11.63
2019-03-29T08:17:06.118Z,11.70
2019-03-29T08:19:37.184Z,12.03
2019-03-29T08:22:05.852Z,12.20
2019-03-29T08:24:34.849Z,11.50
2019-03-29T08:27:03.861Z,12.80
2019-03-29T08:29:33.101Z,11.40
2019-03-29T08:32:02.139Z,12.47
2019-03-29T08:34:31.161Z,12.20
2019-03-29T08:37:00.222Z,11.47
2019-03-29T08:39:29.333Z,12.20
2019-03-29T08:42:00.411Z,12.37
2019-03-29T08:44:29.204Z,12.20
2019-03-29T08:46:58.254Z,12.00
2019-03-29T08:49:27.259Z,12.20
2019-03-29T08:51:56.361Z,12.17
2019-03-29T08:54:25.520Z,11.70
2019-03-29T08:56:54.534Z,11.77
2019-03-29T08:59:23.529Z,12.30
2019-03-29T09:01:52.687Z,12.73
2019-03-29T09:04:21.898Z,13.03
2019-03-29T09:06:53.772Z,11.97
2019-03-29T09:09:21.691Z,11.53
2019-03-29T09:11:50.828Z,12.10
2019-03-29T09:14:19.895Z,12.77
2019-03-29T09:16:48.931Z,11.37
2019-03-29T09:19:18.021Z,10.90
2019-03-29T09:21:47.062Z,10.37
2019-03-29T09:24:34.920Z,9.93
2019-03-29T09:27:03.996Z,11.53
2019-03-29T09:29:33.203Z,10.40
2019-03-29T09:32:02.233Z,11.17
2019-03-29T09:34:31.294Z,9.87
2019-03-29T09:37:00.412Z,9.17
2019-03-29T09:39:29.477Z,9.03
2019-03-29T09:41:58.515Z,10.90
2019-03-29T09:44:27.561Z,9.90
2019-03-29T09:46:56.666Z,10.17
2019-03-29T09:49:25.832Z,10.07
2019-03-29T09:51:54.815Z,10.03
2019-03-29T09:54:23.886Z,10.20
2019-03-29T09:56:53.008Z,11.40
2019-03-29T09:59:24.414Z,9.97
2019-03-29T10:01:54.194Z,10.43
2019-03-29T10:04:23.483Z,10.10
2019-03-29T10:06:52.495Z,8.67
2019-03-29T10:09:21.541Z,7.37
2019-03-29T10:11:50.556Z,8.90
2019-03-29T10:14:19.668Z,8.80
2019-03-29T10:16:48.689Z,10.87
2019-03-29T10:19:17.731Z,6.70
2019-03-29T10:21:46.710Z,6.37
2019-03-29T10:24:15.794Z,7.40
2019-03-29T10:26:44.805Z,7.53
2019-03-29T10:29:13.836Z,7.03
2019-03-29T10:31:42.868Z,7.03
2019-03-29T10:34:12.661Z,7.60
2019-03-29T10:36:41.765Z,7.23
2019-03-29T10:39:12.125Z,7.30
2019-03-29T10:41:41.326Z,6.73
2019-03-29T10:44:10.413Z,7.60
2019-03-29T10:46:39.400Z,7.27
2019-03-29T10:49:08.467Z,7.73
2019-03-29T10:51:37.521Z,7.97
2019-03-29T10:54:06.598Z,7.30
2019-03-29T10:56:35.573Z,7.87
2019-03-29T10:59:04.555Z,7.70
2019-03-29T11:01:33.787Z,7.73
2019-03-29T11:04:02.889Z,7.13
2019-03-29T11:06:31.916Z,6.97
2019-03-29T11:09:00.901Z,7.80
2019-03-29T11:11:31.271Z,7.30
2019-03-29T11:14:00.353Z,7.10
2019-03-29T11:16:29.329Z,7.70
2019-03-29T11:18:58.412Z,7.47
2019-03-29T11:21:27.489Z,7.70
2019-03-29T11:23:58.144Z,7.40
2019-03-29T11:26:27.164Z,7.37
2019-03-29T11:28:56.262Z,7.87
2019-03-29T11:31:25.777Z,8.10
2019-03-29T11:33:55.388Z,8.20
2019-03-29T11:36:24.437Z,8.13
2019-03-29T11:38:53.539Z,8.67
2019-03-29T11:41:22.608Z,9.13
2019-03-29T11:43:51.627Z,8.73
2019-03-29T11:46:20.708Z,8.70
2019-03-29T11:48:49.814Z,8.63
2019-03-29T11:51:20.059Z,8.67
2019-03-29T11:53:51.045Z,8.37
2019-03-29T11:56:20.185Z,8.03
2019-03-29T11:58:49.252Z,8.57
2019-03-29T12:01:18.331Z,8.43
2019-03-29T12:03:47.352Z,8.77
2019-03-29T12:06:16.442Z,8.73
2019-03-29T12:08:45.465Z,7.43
2019-03-29T12:11:14.577Z,7.77
2019-03-29T12:13:43.604Z,8.93
2019-03-29T12:16:12.602Z,8.30
2019-03-29T12:18:41.684Z,8.30
2019-03-29T12:21:10.672Z,8.53
2019-03-29T12:23:39.700Z,7.60
2019-03-29T12:26:08.780Z,8.40
2019-03-29T12:28:37.915Z,7.77
2019-03-29T12:31:07.508Z,8.13
2019-03-29T12:33:36.541Z,8.47
2019-03-29T12:36:05.693Z,8.87
2019-03-29T12:38:34.810Z,9.03
2019-03-29T12:41:03.911Z,10.00
2019-03-29T12:43:32.917Z,10.20
2019-03-29T12:46:02.179Z,9.30
2019-03-29T12:48:31.265Z,8.30
2019-03-29T12:51:00.296Z,9.23
2019-03-29T12:53:29.335Z,8.90
2019-03-29T12:55:58.415Z,9.20
2019-03-29T12:58:27.541Z,8.67
2019-03-29T13:00:56.644Z,8.97
2019-03-29T13:03:25.702Z,9.87
2019-03-29T13:05:54.712Z,9.07
2019-03-29T13:08:23.785Z,9.77
2019-03-29T13:10:52.767Z,9.47
2019-03-29T13:13:21.751Z,10.17
2019-03-29T13:15:50.834Z,9.47
2019-03-29T13:18:19.920Z,9.40
2019-03-29T13:20:48.988Z,9.57
2019-03-29T13:23:18.068Z,9.10
2019-03-29T13:25:47.090Z,9.13
2019-03-29T13:28:16.233Z,9.37
2019-03-29T13:30:45.231Z,9.53
2019-03-29T13:33:14.220Z,9.37
2019-03-29T13:35:44.595Z,10.30
2019-03-29T13:38:13.852Z,9.63
2019-03-29T13:40:42.907Z,8.80
2019-03-29T13:43:11.910Z,8.73
2019-03-29T13:45:41.006Z,9.00
2019-03-29T13:48:10.008Z,9.60
2019-03-29T13:50:39.074Z,9.07
2019-03-29T13:53:08.194Z,9.50
2019-03-29T13:55:56.046Z,9.83
2019-03-29T13:58:25.108Z,9.20
2019-03-29T14:00:54.164Z,9.23
2019-03-29T14:03:23.293Z,9.20
2019-03-29T14:05:52.349Z,9.87
2019-03-29T14:08:21.416Z,8.20
2019-03-29T14:10:50.609Z,9.13
2019-03-29T14:13:19.912Z,8.73
2019-03-29T14:15:49.007Z,8.77
2019-03-29T14:18:18.068Z,9.23
2019-03-29T14:20:47.129Z,9.43
2019-03-29T14:23:16.123Z,9.03
2019-03-29T14:25:45.168Z,9.03
2019-03-29T14:28:14.168Z,9.33
2019-03-29T14:30:43.204Z,10.43
2019-03-29T14:33:12.255Z,9.13
2019-03-29T14:35:41.352Z,9.03
2019-03-29T14:38:10.318Z,8.67
2019-03-29T14:40:39.302Z,8.90
2019-03-29T14:43:08.362Z,9.60
2019-03-29T14:45:37.408Z,9.70
2019-03-29T14:48:06.452Z,8.57
2019-03-29T14:50:35.467Z,10.03
2019-03-29T14:53:04.547Z,9.77
2019-03-29T14:55:33.583Z,9.60
2019-03-29T14:58:02.665Z,9.87
2019-03-29T15:00:36.499Z,9.70
2019-03-29T15:03:05.892Z,9.70
2019-03-29T15:05:34.881Z,9.77
2019-03-29T15:08:03.901Z,9.57
2019-03-29T15:10:32.909Z,9.07
2019-03-29T15:13:01.991Z,9.57
2019-03-29T15:15:31.081Z,10.10
2019-03-29T15:18:00.154Z,10.47
2019-03-29T15:20:29.206Z,9.60
2019-03-29T15:22:58.267Z,9.97
2019-03-29T15:25:27.292Z,9.80
2019-03-29T15:27:56.404Z,9.00
2019-03-29T15:30:25.426Z,9.90
2019-03-29T15:32:54.480Z,10.47
2019-03-29T15:35:23.575Z,9.77
2019-03-29T15:37:52.544Z,9.77
2019-03-29T15:40:21.666Z,9.30
2019-03-29T15:42:50.775Z,9.83
2019-03-29T15:45:21.118Z,10.10
2019-03-29T15:47:50.380Z,10.87
2019-03-29T15:50:19.432Z,9.80
2019-03-29T15:52:48.424Z,9.60
2019-03-29T15:55:17.530Z,9.77
2019-03-29T15:57:46.620Z,10.80
2019-03-29T16:00:15.804Z,10.70
2019-03-29T16:02:44.824Z,11.53
2019-03-29T16:05:13.875Z,10.50
2019-03-29T16:07:42.946Z,10.73
2019-03-29T16:10:12.020Z,9.77
2019-03-29T16:12:41.117Z,10.33
2019-03-29T16:15:10.350Z,10.10
2019-03-29T16:17:39.398Z,10.10
2019-03-29T16:20:08.438Z,10.23
2019-03-29T16:22:37.537Z,9.90
2019-03-29T16:25:06.660Z,9.87
2019-03-29T16:27:35.674Z,10.13
2019-03-29T16:30:05.549Z,10.50
2019-03-29T16:32:34.630Z,10.97
2019-03-29T16:35:03.740Z,9.70
2019-03-29T16:37:32.837Z,9.73
2019-03-29T16:40:01.887Z,9.73
2019-03-29T16:42:31.003Z,9.57
2019-03-29T16:44:59.994Z,9.83
2019-03-29T16:47:29.006Z,9.40
2019-03-29T16:49:58.046Z,9.80
2019-03-29T16:52:27.108Z,9.93
2019-03-29T16:54:56.178Z,9.73
2019-03-29T16:57:25.300Z,9.23
2019-03-29T16:59:54.329Z,10.00
2019-03-29T17:02:23.365Z,9.43
2019-03-29T17:04:52.473Z,9.23
2019-03-29T17:07:21.512Z,9.73
2019-03-29T17:09:50.637Z,9.37
2019-03-29T17:12:19.686Z,9.10
2019-03-29T17:14:48.777Z,9.57
2019-03-29T17:17:17.835Z,9.23
2019-03-29T17:19:46.823Z,8.83
2019-03-29T17:22:15.896Z,9.53
2019-03-29T17:24:56.446Z,9.20
2019-03-29T17:27:15.817Z,8.53
2019-03-29T17:29:44.867Z,9.17
2019-03-29T17:32:13.895Z,9.70
2019-03-29T17:34:43.462Z,9.47
2019-03-29T17:37:12.630Z,9.63
2019-03-29T17:39:41.827Z,8.93
2019-03-29T17:42:10.920Z,9.47
2019-03-29T17:44:40.009Z,9.43
2019-03-29T17:47:10.005Z,9.67
2019-03-29T17:49:39.046Z,9.57
2019-03-29T17:52:08.051Z,9.23
2019-03-29T17:54:37.179Z,9.43
2019-03-29T17:57:06.298Z,9.47
2019-03-29T17:59:35.346Z,10.90
2019-03-29T18:02:09.522Z,10.60
2019-03-29T18:04:35.193Z,10.37
2019-03-29T18:07:04.307Z,10.37
2019-03-29T18:09:33.455Z,9.93
2019-03-29T18:12:02.605Z,11.03
